Time;durP1;ratioP1;P1;durP2;ratioP2;P2;SDS_P1;SDS_P2;PMS_P1;PMS_P2;Temp;Humidity;BMP_temperature;BMP_pressure;BME280_temperature;BME280_humidity;BME280_pressure;Samples;Min_cycle;Max_cycle;Signal;HPM_P1;HPM_P2
2022/11/02 00:00:05;;;;;;;;;;;;;;;20.84;30.08;98398.66;5038340;28;1098;-78
2022/11/02 00:02:36;;;;;;;;;;;;;;;21.56;29.06;98392.50;5036861;28;888;-78
2022/11/02 00:05:01;;;;;;;;;;;;;;;21.46;29.27;98393.50;5054944;28;842;-79
2022/11/02 00:07:27;;;;;;;;;;;;;;;21.24;29.18;98399.56;5054757;28;719;-78
2022/11/02 00:09:52;;;;;;;;;;;;;;;21.30;29.44;98403.50;5054679;28;992;-78
2022/11/02 00:12:18;;;;;;;;;;;;;;;21.03;29.75;98397.09;5038039;28;798;-78
2022/11/02 00:14:43;;;;;;;;;;;;;;;20.79;30.31;98391.44;5021471;28;1989;-78
2022/11/02 00:17:09;;;;;;;;;;;;;;;21.35;29.28;98387.22;5054590;28;821;-79
2022/11/02 00:19:34;;;;;;;;;;;;;;;21.39;29.41;98379.47;5021428;28;759;-78
2022/11/02 00:22:01;;;;;;;;;;;;;;;21.30;29.44;98380.84;5037687;28;1402;-78
2022/11/02 00:24:27;;;;;;;;;;;;;;;21.26;29.21;98373.63;5038072;28;687;-78
2022/11/02 00:26:52;;;;;;;;;;;;;;;21.22;29.60;98378.56;5054256;28;887;-78
2022/11/02 00:29:19;;;;;;;;;;;;;;;21.18;29.22;98372.16;5037864;28;1236;-78
2022/11/02 00:31:45;;;;;;;;;;;;;;;20.99;29.65;98380.19;5054396;28;766;-78
2022/11/02 00:34:10;;;;;;;;;;;;;;;21.32;29.26;98367.06;5018504;28;1910;-78
2022/11/02 00:36:35;;;;;;;;;;;;;;;21.42;29.39;98364.47;5035283;28;1098;-78
2022/11/02 00:39:01;;;;;;;;;;;;;;;21.24;29.48;98365.59;5035542;28;1301;-78
2022/11/02 00:41:26;;;;;;;;;;;;;;;21.43;28.98;98361.19;5036647;28;743;-78
2022/11/02 00:43:52;;;;;;;;;;;;;;;21.27;29.25;98364.69;5035573;28;1231;-78
2022/11/02 00:46:19;;;;;;;;;;;;;;;21.20;29.20;98359.19;5035643;28;1122;-78
2022/11/02 00:48:44;;;;;;;;;;;;;;;21.07;29.49;98355.38;5037427;28;1222;-78
2022/11/02 00:51:10;;;;;;;;;;;;;;;21.20;29.64;98353.53;5037509;28;1207;-78
2022/11/02 00:53:41;;;;;;;;;;;;;;;21.22;29.86;98350.25;5038214;28;1906;-78
2022/11/02 00:56:07;;;;;;;;;;;;;;;21.24;29.79;98354.28;5037367;28;839;-78
2022/11/02 00:58:32;;;;;;;;;;;;;;;21.17;29.54;98353.59;5037932;28;1135;-78
2022/11/02 01:01:02;;;;;;;;;;;;;;;21.30;29.63;98357.41;5037585;28;1181;-78
2022/11/02 01:03:28;;;;;;;;;;;;;;;21.20;29.46;98347.88;5037618;28;1609;-78
2022/11/02 01:05:54;;;;;;;;;;;;;;;21.25;29.86;98350.19;5054221;28;790;-78
2022/11/02 01:08:19;;;;;;;;;;;;;;;21.42;29.50;98347.47;5037537;28;1311;-78
2022/11/02 01:10:44;;;;;;;;;;;;;;;21.25;29.47;98344.53;5054063;28;846;-79
2022/11/02 01:13:10;;;;;;;;;;;;;;;21.36;29.27;98340.72;5053757;28;1906;-78
2022/11/02 01:15:38;;;;;;;;;;;;;;;21.22;29.60;98334.06;5053912;28;751;-78
2022/11/02 01:18:04;;;;;;;;;;;;;;;20.97;29.71;98330.94;5037500;28;841;-78
2022/11/02 01:20:30;;;;;;;;;;;;;;;21.01;29.79;98335.28;5021899;28;1279;-79
2022/11/02 01:22:56;;;;;;;;;;;;;;;20.96;29.63;98327.31;5068681;28;704;-78
2022/11/02 01:25:22;;;;;;;;;;;;;;;21.13;30.00;98316.06;5035302;28;1277;-78
2022/11/02 01:27:49;;;;;;;;;;;;;;;21.37;29.24;98311.19;5035127;28;1221;-78
2022/11/02 01:30:15;;;;;;;;;;;;;;;21.52;29.00;98323.81;5051526;28;712;-78
2022/11/02 01:32:42;;;;;;;;;;;;;;;21.15;29.73;98313.63;5067431;28;1981;-78
2022/11/02 01:35:09;;;;;;;;;;;;;;;20.98;30.18;98309.88;5035381;28;1138;-78
2022/11/02 01:37:37;;;;;;;;;;;;;;;21.06;29.86;98311.34;5050822;28;1249;-79
2022/11/02 01:40:02;;;;;;;;;;;;;;;21.00;29.55;98304.59;5035074;28;1126;-78
2022/11/02 01:42:28;;;;;;;;;;;;;;;20.95;30.13;98296.63;5053447;28;900;-78
2022/11/02 01:44:54;;;;;;;;;;;;;;;21.39;29.28;98298.16;5013744;28;1190;-78
2022/11/02 01:47:22;;;;;;;;;;;;;;;21.51;28.95;98299.56;5014246;28;1242;-78
2022/11/02 01:49:48;;;;;;;;;;;;;;;21.08;29.48;98294.72;5016207;28;1241;-78
2022/11/02 01:52:34;;;;;;;;;;;;;;;21.20;29.54;98291.28;5017543;28;906;-78
2022/11/02 01:55:18;;;;;;;;;;;;;;;21.02;29.79;98290.81;5017508;28;1902;-78
2022/11/02 01:57:44;;;;;;;;;;;;;;;21.28;29.32;98291.91;5017536;28;1260;-79
2022/11/02 02:00:11;;;;;;;;;;;;;;;21.33;29.55;98285.78;5017513;28;1070;-78
2022/11/02 02:06:15;;;;;;;;;;;;;;;21.05;29.66;98279.44;4997666;28;758;-79
2022/11/02 02:08:42;;;;;;;;;;;;;;;21.19;29.60;98283.19;4998208;28;1134;-78
2022/11/02 02:11:24;;;;;;;;;;;;;;;21.04;29.49;98282.72;4981466;28;1347;-78
2022/11/02 02:13:50;;;;;;;;;;;;;;;21.19;29.31;98286.03;4981389;28;1922;-78
2022/11/02 02:16:17;;;;;;;;;;;;;;;21.16;29.54;98284.09;4997682;28;1313;-78
2022/11/02 02:18:43;;;;;;;;;;;;;;;21.04;29.66;98282.72;4997635;28;1308;-78
2022/11/02 02:21:27;;;;;;;;;;;;;;;21.18;29.27;98282.41;4997377;28;872;-78
2022/11/02 02:24:18;;;;;;;;;;;;;;;21.33;29.13;98283.72;4997322;28;1175;-78
2022/11/02 02:27:01;;;;;;;;;;;;;;;21.08;29.76;98277.75;4997311;28;1108;-78
2022/11/02 02:29:49;;;;;;;;;;;;;;;21.26;29.28;98281.03;4962030;28;1310;-78
2022/11/02 02:32:24;;;;;;;;;;;;;;;20.96;29.76;98275.59;4939630;29;1397;-78
2022/11/02 02:34:53;;;;;;;;;;;;;;;21.12;29.70;98277.69;4939456;29;1918;-78
2022/11/02 02:37:30;;;;;;;;;;;;;;;21.41;29.06;98273.06;4955355;29;1283;-78
2022/11/02 02:39:59;;;;;;;;;;;;;;;21.10;29.52;98278.13;4955498;28;1155;-78
2022/11/02 02:42:35;;;;;;;;;;;;;;;21.22;29.41;98279.50;4939258;29;1140;-78
2022/11/02 02:45:07;;;;;;;;;;;;;;;21.04;29.55;98277.06;4938963;29;925;-78
2022/11/02 02:47:33;;;;;;;;;;;;;;;21.07;29.53;98271.31;4955091;28;1308;-78
2022/11/02 02:50:10;;;;;;;;;;;;;;;20.89;30.07;98275.75;4938702;29;879;-78
2022/11/02 02:52:36;;;;;;;;;;;;;;;21.18;29.56;98281.59;4955288;28;1136;-78
2022/11/02 02:55:02;;;;;;;;;;;;;;;21.45;29.13;98270.97;4938619;29;1919;-78
2022/11/02 02:57:29;;;;;;;;;;;;;;;21.20;29.57;98277.13;4954944;28;1391;-78
2022/11/02 02:59:54;;;;;;;;;;;;;;;21.29;29.44;98271.66;4949551;28;815;-78
2022/11/02 03:02:24;;;;;;;;;;;;;;;21.18;29.24;98270.28;4977452;28;913;-78
2022/11/02 03:04:51;;;;;;;;;;;;;;;21.11;29.60;98276.09;5029447;28;1178;-78
2022/11/02 03:07:22;;;;;;;;;;;;;;;20.99;29.61;98269.06;5029623;28;1177;-78
2022/11/02 03:09:51;;;;;;;;;;;;;;;21.15;29.58;98269.16;5032029;28;1284;-78
2022/11/02 03:12:27;;;;;;;;;;;;;;;20.83;30.02;98268.97;5070264;28;1236;-78
2022/11/02 03:14:59;;;;;;;;;;;;;;;21.31;29.39;98265.59;5053667;28;1914;-78
2022/11/02 03:17:26;;;;;;;;;;;;;;;21.41;28.96;98266.63;5053652;28;1306;-78
2022/11/02 03:20:08;;;;;;;;;;;;;;;21.28;29.10;98258.75;5070229;28;1185;-78
2022/11/02 03:22:45;;;;;;;;;;;;;;;21.11;29.51;98253.47;5053737;28;919;-78
2022/11/02 03:25:13;;;;;;;;;;;;;;;21.24;29.24;98252.38;5022297;28;1319;-78
2022/11/02 03:27:40;;;;;;;;;;;;;;;21.30;29.11;98249.88;5022454;28;960;-78
2022/11/02 03:30:13;;;;;;;;;;;;;;;21.35;28.89;98245.69;5022307;28;1152;-78
2022/11/02 03:32:50;;;;;;;;;;;;;;;21.32;29.08;98242.53;5022307;28;1070;-78
2022/11/02 03:35:35;;;;;;;;;;;;;;;21.51;29.00;98237.28;5022742;28;1258;-78
2022/11/02 03:38:03;;;;;;;;;;;;;;;21.23;29.28;98242.28;5022605;28;1332;-79
2022/11/02 03:40:29;;;;;;;;;;;;;;;21.30;28.86;98228.03;5022222;28;1214;-79
2022/11/02 03:42:55;;;;;;;;;;;;;;;21.19;29.01;98244.41;5022286;28;1249;-78
2022/11/02 03:45:24;;;;;;;;;;;;;;;21.27;29.23;98239.38;5022234;28;1346;-78
2022/11/02 03:47:53;;;;;;;;;;;;;;;21.18;29.08;98231.47;5027621;28;1316;-78
2022/11/02 03:50:20;;;;;;;;;;;;;;;20.99;29.59;98237.97;5002440;28;1092;-78
2022/11/02 03:52:47;;;;;;;;;;;;;;;21.22;29.45;98237.84;5002499;28;1910;-78
2022/11/02 03:55:15;;;;;;;;;;;;;;;21.48;28.82;98233.28;4998367;28;1079;-78
2022/11/02 03:57:40;;;;;;;;;;;;;;;21.13;29.23;98231.19;5013235;28;688;-78
2022/11/02 04:00:07;;;;;;;;;;;;;;;21.17;29.18;98229.88;5029424;28;810;-78
2022/11/02 04:02:40;;;;;;;;;;;;;;;21.12;29.09;98229.59;5034787;28;823;-78
2022/11/02 04:05:06;;;;;;;;;;;;;;;21.10;29.40;98227.22;5002313;28;1190;-78
2022/11/02 04:08:19;;;;;;;;;;;;;;;21.17;29.17;98229.88;5034739;28;940;-79
2022/11/02 04:10:18;;;;;;;;;;;;;;;21.45;28.91;98230.50;5018619;28;1237;-78
2022/11/02 04:15:27;;;;;;;;;;;;;;;21.41;29.08;98227.78;5018392;28;1095;-78
2022/11/02 04:20:37;;;;;;;;;;;;;;;21.20;29.16;98223.34;5018177;28;1300;-79
2022/11/02 04:25:51;;;;;;;;;;;;;;;21.05;29.50;98220.03;5018111;28;1233;-78
2022/11/02 04:28:31;;;;;;;;;;;;;;;21.07;29.28;98211.09;5034356;28;966;-78
2022/11/02 04:30:59;;;;;;;;;;;;;;;20.97;29.52;98218.56;5001639;28;1123;-78
2022/11/02 04:33:34;;;;;;;;;;;;;;;20.90;29.76;98209.44;4991660;28;1907;-78
2022/11/02 04:36:20;;;;;;;;;;;;;;;21.04;29.64;98209.16;5012903;28;1011;-78
2022/11/02 04:38:51;;;;;;;;;;;;;;;21.31;29.14;98209.81;4996875;28;1178;-79
2022/11/02 04:44:10;;;;;;;;;;;;;;;20.95;29.72;98217.41;4998336;28;1645;-78
2022/11/02 04:46:38;;;;;;;;;;;;;;;20.91;29.54;98209.00;5007663;28;1048;-78
2022/11/02 04:49:05;;;;;;;;;;;;;;;20.99;29.68;98212.50;5050788;28;1387;-78
2022/11/02 04:51:32;;;;;;;;;;;;;;;20.97;29.55;98210.09;5033960;28;1252;-78
2022/11/02 04:53:57;;;;;;;;;;;;;;;21.35;29.37;98208.91;5049574;28;1898;-78
2022/11/02 04:56:24;;;;;;;;;;;;;;;21.48;29.03;98212.66;5034346;28;1126;-78
2022/11/02 04:58:50;;;;;;;;;;;;;;;21.03;29.44;98219.66;5037743;28;1270;-78
2022/11/02 05:01:16;;;;;;;;;;;;;;;20.94;29.71;98213.00;5035256;28;1299;-79
2022/11/02 05:03:42;;;;;;;;;;;;;;;21.08;29.59;98210.66;5035805;28;1557;-78
2022/11/02 05:06:09;;;;;;;;;;;;;;;21.16;29.29;98214.13;5068285;28;1536;-78
2022/11/02 05:08:35;;;;;;;;;;;;;;;21.14;29.38;98213.78;5035352;28;1260;-78
2022/11/02 05:11:00;;;;;;;;;;;;;;;21.11;29.92;98200.50;5051977;28;1133;-78
2022/11/02 05:13:26;;;;;;;;;;;;;;;21.40;29.09;98212.03;5035137;28;1964;-79
2022/11/02 05:15:55;;;;;;;;;;;;;;;21.51;29.16;98214.63;5067103;28;1495;-79
2022/11/02 05:18:20;;;;;;;;;;;;;;;21.30;29.36;98213.06;5053225;28;1409;-78
2022/11/02 05:20:53;;;;;;;;;;;;;;;21.03;29.69;98207.53;5054988;28;763;-79
2022/11/02 05:23:20;;;;;;;;;;;;;;;20.95;29.86;98217.41;5056703;28;1216;-79
2022/11/02 05:25:52;;;;;;;;;;;;;;;21.04;29.49;98212.00;5059444;28;1259;-79
2022/11/02 05:28:18;;;;;;;;;;;;;;;21.49;29.24;98211.41;5058415;28;1317;-79
2022/11/02 05:30:44;;;;;;;;;;;;;;;21.43;28.99;98224.50;5068083;28;1399;-78
2022/11/02 05:33:09;;;;;;;;;;;;;;;21.49;28.81;98220.72;5092204;28;1905;-79
2022/11/02 05:35:35;;;;;;;;;;;;;;;21.30;29.13;98222.38;5074281;28;1257;-78
2022/11/02 05:38:01;;;;;;;;;;;;;;;21.08;29.40;98221.16;5071536;28;1567;-78
2022/11/02 05:40:26;;;;;;;;;;;;;;;20.91;29.92;98234.47;5072081;28;1216;-78
2022/11/02 05:42:57;;;;;;;;;;;;;;;21.06;29.43;98234.97;5057446;28;1307;-78
2022/11/02 05:45:22;;;;;;;;;;;;;;;21.23;29.34;98222.47;5040673;28;1059;-78
2022/11/02 05:47:48;;;;;;;;;;;;;;;21.55;28.96;98232.31;5043376;28;1581;-78
2022/11/02 05:50:13;;;;;;;;;;;;;;;21.17;29.36;98224.22;5077277;28;779;-78
2022/11/02 05:52:39;;;;;;;;;;;;;;;21.17;29.56;98229.88;5043784;28;814;-78
2022/11/02 05:55:04;;;;;;;;;;;;;;;21.23;29.59;98233.78;5043923;28;2045;-78
2022/11/02 05:57:30;;;;;;;;;;;;;;;21.29;29.20;98232.03;5059889;28;1498;-78
2022/11/02 05:59:55;;;;;;;;;;;;;;;21.07;29.56;98239.38;5060299;28;854;-78
2022/11/02 06:02:21;;;;;;;;;;;;;;;21.11;29.86;98231.63;5060805;28;1089;-78
2022/11/02 06:04:46;;;;;;;;;;;;;;;21.51;29.19;98231.63;5076036;28;1565;-78
2022/11/02 06:07:12;;;;;;;;;;;;;;;21.45;29.04;98228.50;5060303;28;854;-78
2022/11/02 06:09:37;;;;;;;;;;;;;;;21.33;29.34;98232.78;5060505;28;822;-79
2022/11/02 06:12:03;;;;;;;;;;;;;;;21.27;29.60;98233.72;5043633;28;1245;-79
2022/11/02 06:14:28;;;;;;;;;;;;;;;21.04;29.91;98237.44;5040925;28;1910;-79
2022/11/02 06:16:53;;;;;;;;;;;;;;;21.17;29.31;98238.38;5039589;28;1466;-78
2022/11/02 06:19:19;;;;;;;;;;;;;;;21.07;29.58;98243.00;5038092;28;1188;-78
2022/11/02 06:21:44;;;;;;;;;;;;;;;21.37;29.42;98243.25;5071652;28;1211;-78
2022/11/02 06:24:10;;;;;;;;;;;;;;;21.37;29.26;98243.25;5020532;28;1123;-79
2022/11/02 06:26:35;;;;;;;;;;;;;;;21.14;29.87;98246.91;5069377;28;1478;-78
2022/11/02 06:29:01;;;;;;;;;;;;;;;21.28;29.58;98246.63;5079634;28;847;-78
2022/11/02 06:31:26;;;;;;;;;;;;;;;21.20;29.64;98251.66;5079975;28;815;-78
2022/11/02 06:33:51;;;;;;;;;;;;;;;20.92;29.89;98253.03;5079945;28;2000;-79
2022/11/02 06:36:17;;;;;;;;;;;;;;;20.86;30.29;98253.97;5081999;28;1525;-78
2022/11/02 06:38:44;;;;;;;;;;;;;;;20.92;30.13;98255.06;5076490;28;1142;-78
2022/11/02 06:41:10;;;;;;;;;;;;;;;21.12;30.02;98255.06;5076582;28;825;-78
2022/11/02 06:43:37;;;;;;;;;;;;;;;21.37;29.47;98248.91;5059678;28;1218;-78
2022/11/02 06:46:02;;;;;;;;;;;;;;;21.34;29.49;98250.56;5070312;28;1531;-78
2022/11/02 06:48:28;;;;;;;;;;;;;;;21.08;29.88;98253.09;5079358;28;1090;-78
2022/11/02 06:50:53;;;;;;;;;;;;;;;21.08;29.82;98258.75;5079672;28;1180;-78
2022/11/02 06:53:19;;;;;;;;;;;;;;;21.15;29.99;98249.34;5062529;28;1906;-78
2022/11/02 06:55:44;;;;;;;;;;;;;;;21.26;29.52;98261.22;5090317;28;1334;-79
2022/11/02 06:58:10;;;;;;;;;;;;;;;21.18;29.61;98259.78;5075561;28;1586;-78
2022/11/02 07:00:35;;;;;;;;;;;;;;;21.00;30.05;98253.69;5042073;28;1118;-78
2022/11/02 07:03:04;;;;;;;;;;;;;;;21.41;29.49;98249.63;5037996;28;1533;-78
2022/11/02 07:05:30;;;;;;;;;;;;;;;21.54;29.61;98253.38;5065631;28;1367;-78
2022/11/02 07:07:55;;;;;;;;;;;;;;;21.24;29.60;98257.22;5040817;28;1545;-78
2022/11/02 07:10:21;;;;;;;;;;;;;;;21.31;29.80;98255.09;5019677;28;1429;-78
2022/11/02 07:12:46;;;;;;;;;;;;;;;21.12;29.87;98255.84;5070153;28;1536;-78
2022/11/02 07:15:12;;;;;;;;;;;;;;;21.23;29.67;98258.47;5027578;28;1906;-78
2022/11/02 07:17:38;;;;;;;;;;;;;;;21.11;29.99;98254.25;5073645;28;1161;-78
2022/11/02 07:20:04;;;;;;;;;;;;;;;22.08;28.80;98252.94;5350164;22;3659;-77
2022/11/02 07:22:30;;;;;;;;;;;;;;;21.93;29.60;98251.69;5056366;28;1624;-77
2022/11/02 07:24:55;;;;;;;;;;;;;;;21.68;30.47;98253.06;5053155;28;1557;-76
2022/11/02 07:27:21;;;;;;;;;;;;;;;21.49;30.80;98245.41;5053879;28;1252;-77
2022/11/02 07:29:47;;;;;;;;;;;;;;;21.19;31.17;98250.06;5069014;28;1771;-77
2022/11/02 07:32:12;;;;;;;;;;;;;;;20.97;31.58;98246.06;5058485;28;824;-77
2022/11/02 07:34:37;;;;;;;;;;;;;;;20.93;31.25;98245.34;5073599;28;1902;-77
2022/11/02 07:37:03;;;;;;;;;;;;;;;20.93;31.19;98248.16;5057170;28;1226;-77
2022/11/02 07:39:28;;;;;;;;;;;;;;;20.94;30.94;98241.28;5073785;28;1133;-77
2022/11/02 07:41:54;;;;;;;;;;;;;;;21.16;30.82;98244.47;5055127;28;1738;-78
2022/11/02 07:44:22;;;;;;;;;;;;;;;21.36;30.11;98233.16;5056700;28;1323;-77
2022/11/02 07:46:53;;;;;;;;;;;;;;;21.03;30.75;98241.50;5057215;28;814;-76
2022/11/02 07:49:18;;;;;;;;;;;;;;;21.22;30.25;98226.53;5039397;28;1253;-76
2022/11/02 07:51:44;;;;;;;;;;;;;;;21.19;30.24;98226.59;5057753;28;718;-77
2022/11/02 07:54:09;;;;;;;;;;;;;;;21.17;30.13;98229.09;5073058;28;1973;-76
2022/11/02 07:56:35;;;;;;;;;;;;;;;21.26;29.76;98226.47;5073406;28;718;-78
2022/11/02 07:59:00;;;;;;;;;;;;;;;21.40;29.18;98220.53;5037688;28;919;-77
2022/11/02 08:01:26;;;;;;;;;;;;;;;21.42;29.18;98229.38;5015735;28;842;-78
2022/11/02 08:03:51;;;;;;;;;;;;;;;21.17;29.21;98221.38;5015485;28;841;-77
2022/11/02 08:06:17;;;;;;;;;;;;;;;21.10;29.52;98230.03;5015408;28;858;-78
2022/11/02 08:08:42;;;;;;;;;;;;;;;20.84;30.01;98228.97;5016877;28;877;-77
2022/11/02 08:11:08;;;;;;;;;;;;;;;20.93;29.73;98220.66;5035362;28;711;-78
2022/11/02 08:13:33;;;;;;;;;;;;;;;21.45;28.79;98216.34;5002708;28;1969;-77
2022/11/02 08:15:59;;;;;;;;;;;;;;;21.44;28.54;98215.56;5010919;28;1546;-77
2022/11/02 08:18:25;;;;;;;;;;;;;;;21.27;28.80;98217.53;4999643;28;1348;-77
2022/11/02 08:20:50;;;;;;;;;;;;;;;21.00;29.22;98216.91;5000743;28;1590;-77
2022/11/02 08:23:16;;;;;;;;;;;;;;;20.85;29.49;98218.44;5019181;28;1471;-78
2022/11/02 08:25:42;;;;;;;;;;;;;;;21.04;29.01;98209.16;5000924;28;1583;-77
2022/11/02 08:28:10;;;;;;;;;;;;;;;21.12;28.74;98207.75;4999356;28;1027;-78
2022/11/02 08:30:36;;;;;;;;;;;;;;;21.23;28.59;98205.47;5011170;28;903;-77
2022/11/02 08:33:02;;;;;;;;;;;;;;;21.30;28.47;98205.38;5049092;28;1973;-78
2022/11/02 08:35:28;;;;;;;;;;;;;;;21.00;28.62;98202.78;5017003;28;1112;-77
2022/11/02 08:37:54;;;;;;;;;;;;;;;20.80;29.07;98195.09;5017872;28;766;-77
2022/11/02 08:40:19;;;;;;;;;;;;;;;21.03;28.72;98193.41;5017548;28;751;-77
2022/11/02 08:42:45;;;;;;;;;;;;;;;21.18;28.43;98203.16;5055087;28;1458;-77
2022/11/02 08:45:10;;;;;;;;;;;;;;;21.04;28.74;98195.00;5052708;28;1135;-78
2022/11/02 08:47:39;;;;;;;;;;;;;;;20.94;28.81;98196.03;5035112;28;1303;-78
2022/11/02 08:50:05;;;;;;;;;;;;;;;21.14;28.70;98194.00;5052771;28;1268;-77
2022/11/02 08:52:34;;;;;;;;;;;;;;;21.30;28.20;98199.72;5063959;28;1509;-78
2022/11/02 08:54:59;;;;;;;;;;;;;;;21.20;28.33;98199.94;5017236;28;1980;-78
2022/11/02 08:57:24;;;;;;;;;;;;;;;21.04;28.50;98192.97;5049957;28;790;-77
2022/11/02 08:59:50;;;;;;;;;;;;;;;20.98;28.48;98194.69;5022860;28;1357;-77
2022/11/02 09:02:16;;;;;;;;;;;;;;;20.86;29.01;98192.53;5025368;28;1525;-77
2022/11/02 09:04:41;;;;;;;;;;;;;;;21.06;28.50;98189.69;5075618;28;750;-77
2022/11/02 09:07:07;;;;;;;;;;;;;;;20.98;28.62;98185.41;5059326;28;782;-77
2022/11/02 09:09:32;;;;;;;;;;;;;;;21.36;28.05;98179.38;5043523;28;825;-78
2022/11/02 09:11:57;;;;;;;;;;;;;;;21.38;27.83;98182.56;5075967;28;1110;-78
2022/11/02 09:14:23;;;;;;;;;;;;;;;21.11;28.25;98180.69;5055765;28;1906;-77
2022/11/02 09:16:49;;;;;;;;;;;;;;;20.90;28.73;98175.50;5023691;28;738;-77
2022/11/02 09:19:14;;;;;;;;;;;;;;;21.08;28.35;98190.06;5058380;28;1156;-78
2022/11/02 09:21:40;;;;;;;;;;;;;;;21.00;28.75;98177.31;5043256;28;1473;-77
2022/11/02 09:24:05;;;;;;;;;;;;;;;20.84;28.73;98165.94;5043176;28;750;-77
2022/11/02 09:26:31;;;;;;;;;;;;;;;20.88;28.78;98173.13;5043421;28;734;-78
2022/11/02 09:28:56;;;;;;;;;;;;;;;20.89;28.54;98169.06;5059071;28;1170;-77
2022/11/02 09:31:22;;;;;;;;;;;;;;;21.28;28.03;98168.19;5043253;28;1545;-78
2022/11/02 09:33:47;;;;;;;;;;;;;;;21.33;27.83;98164.84;5058958;28;1914;-78
2022/11/02 09:36:13;;;;;;;;;;;;;;;21.25;28.11;98163.41;5078936;28;742;-77
2022/11/02 09:38:38;;;;;;;;;;;;;;;20.93;28.63;98157.66;5062275;28;1122;-77
2022/11/02 09:41:07;;;;;;;;;;;;;;;21.15;28.46;98161.63;5063856;28;1546;-78
2022/11/02 09:43:32;;;;;;;;;;;;;;;21.07;28.43;98163.78;5058356;28;1572;-77
2022/11/02 09:46:05;;;;;;;;;;;;;;;20.84;28.96;98155.44;5060450;28;1415;-77
2022/11/02 09:48:30;;;;;;;;;;;;;;;20.97;28.56;98158.38;5058650;28;864;-77
2022/11/02 09:50:56;;;;;;;;;;;;;;;21.42;28.12;98152.16;5058804;28;1394;-77
2022/11/02 09:53:23;;;;;;;;;;;;;;;21.33;28.00;98153.53;5043510;28;1914;-77
2022/11/02 09:55:50;;;;;;;;;;;;;;;21.16;28.39;98139.78;5060075;28;1334;-77
2022/11/02 09:58:17;;;;;;;;;;;;;;;21.03;28.54;98136.81;5069216;28;1346;-77
2022/11/02 10:00:43;;;;;;;;;;;;;;;21.03;28.47;98133.97;5076752;28;1415;-78
2022/11/02 10:03:16;;;;;;;;;;;;;;;21.07;28.57;98129.06;5078477;28;699;-78
2022/11/02 10:05:52;;;;;;;;;;;;;;;20.91;28.69;98129.00;5078653;28;951;-77
2022/11/02 10:08:17;;;;;;;;;;;;;;;20.79;28.84;98119.97;5078660;28;762;-77
2022/11/02 10:10:49;;;;;;;;;;;;;;;21.26;28.17;98119.72;5073338;28;1529;-77
2022/11/02 10:13:27;;;;;;;;;;;;;;;21.32;27.99;98115.16;5075550;28;1972;-77
2022/11/02 10:15:56;;;;;;;;;;;;;;;21.14;28.26;98111.09;5048433;28;1471;-78
2022/11/02 10:18:23;;;;;;;;;;;;;;;21.04;28.76;98112.97;5055301;28;941;-77
2022/11/02 10:20:49;;;;;;;;;;;;;;;20.97;28.51;98110.28;5047285;28;1478;-77
2022/11/02 10:23:26;;;;;;;;;;;;;;;20.89;28.92;98109.66;5070689;28;1548;-78
2022/11/02 10:25:52;;;;;;;;;;;;;;;21.00;28.81;98100.94;5055117;28;860;-78
2022/11/02 10:28:19;;;;;;;;;;;;;;;21.18;28.26;98106.97;5054447;28;1548;-77
2022/11/02 10:30:44;;;;;;;;;;;;;;;21.33;27.81;98091.28;5055025;28;782;-77
2022/11/02 10:33:31;;;;;;;;;;;;;;;21.23;28.29;98092.28;5055173;28;1914;-77
2022/11/02 10:35:57;;;;;;;;;;;;;;;20.98;28.56;98083.59;5039349;28;1105;-77
2022/11/02 10:38:26;;;;;;;;;;;;;;;21.01;28.82;98085.53;5041268;28;1567;-77
2022/11/02 10:41:21;;;;;;;;;;;;;;;21.02;28.47;98087.94;5062837;28;1754;-77
2022/11/02 10:44:05;;;;;;;;;;;;;;;21.13;28.29;98078.41;5056471;28;975;-77
2022/11/02 10:46:30;;;;;;;;;;;;;;;21.63;27.67;98086.50;5038678;28;1514;-77
2022/11/02 10:49:14;;;;;;;;;;;;;;;21.29;28.08;98079.19;5031237;28;1510;-78
2022/11/02 10:55:36;;;;;;;;;;;;;;;20.97;28.77;98079.16;5056738;28;1910;-77
2022/11/02 10:58:02;;;;;;;;;;;;;;;20.92;29.05;98074.81;5017008;28;1444;-77
2022/11/02 11:00:32;;;;;;;;;;;;;;;21.03;28.58;98077.41;5001136;28;1303;-78
2022/11/02 11:03:10;;;;;;;;;;;;;;;20.90;28.92;98071.66;5001156;28;911;-77
2022/11/02 11:05:37;;;;;;;;;;;;;;;20.95;28.78;98076.00;5000718;28;1170;-78
2022/11/02 11:08:03;;;;;;;;;;;;;;;21.08;28.56;98074.06;4983604;28;1451;-78
2022/11/02 11:10:29;;;;;;;;;;;;;;;21.14;28.38;98065.84;5000510;28;888;-77
2022/11/02 11:12:55;;;;;;;;;;;;;;;21.40;27.85;98061.19;5000641;28;1128;-78
2022/11/02 11:15:21;;;;;;;;;;;;;;;21.07;28.53;98061.94;5000273;28;1906;-78
2022/11/02 11:17:46;;;;;;;;;;;;;;;21.01;28.60;98052.41;4999766;28;1511;-78
2022/11/02 11:20:24;;;;;;;;;;;;;;;20.94;28.93;98046.91;4968238;28;1516;-77
2022/11/02 11:23:05;;;;;;;;;;;;;;;20.95;28.84;98054.16;4974450;28;1198;-78
2022/11/02 11:25:31;;;;;;;;;;;;;;;20.92;28.86;98048.56;4974502;28;1273;-77
2022/11/02 11:27:57;;;;;;;;;;;;;;;21.51;27.89;98047.59;4975009;28;1505;-77
2022/11/02 11:30:25;;;;;;;;;;;;;;;21.39;27.99;98042.63;4993958;28;1092;-77
2022/11/02 11:32:51;;;;;;;;;;;;;;;21.16;28.29;98052.06;4993675;28;1285;-77
2022/11/02 11:35:17;;;;;;;;;;;;;;;21.00;28.80;98033.03;5004584;28;1969;-77
2022/11/02 11:37:49;;;;;;;;;;;;;;;20.98;28.68;98041.16;4964396;28;692;-77
2022/11/02 11:40:19;;;;;;;;;;;;;;;21.12;28.59;98034.38;5028830;28;1510;-77
2022/11/02 11:42:44;;;;;;;;;;;;;;;21.08;28.65;98031.63;5073589;28;853;-77
2022/11/02 11:45:17;;;;;;;;;;;;;;;21.00;28.47;98033.03;5055905;28;1506;-77
2022/11/02 11:47:42;;;;;;;;;;;;;;;20.91;28.94;98027.19;5073225;28;766;-77
2022/11/02 11:50:12;;;;;;;;;;;;;;;20.97;28.83;98022.59;5073344;28;758;-77
2022/11/02 11:52:37;;;;;;;;;;;;;;;21.12;28.45;98021.03;5055507;28;1490;-78
2022/11/02 11:55:18;;;;;;;;;;;;;;;21.24;28.32;98020.34;5055830;28;1901;-77
2022/11/02 11:57:44;;;;;;;;;;;;;;;21.07;28.58;98016.69;5057856;28;781;-77
2022/11/02 12:00:28;;;;;;;;;;;;;;;21.00;28.54;98021.72;5073174;28;805;-77
2022/11/02 12:03:12;;;;;;;;;;;;;;;21.08;28.76;98023.13;5073124;28;815;-77
2022/11/02 12:06:00;;;;;;;;;;;;;;;20.98;28.56;98018.53;5057794;28;745;-76
2022/11/02 12:08:28;;;;;;;;;;;;;;;20.91;28.77;98018.72;5016046;28;951;-77
2022/11/02 12:10:57;;;;;;;;;;;;;;;20.71;29.32;98011.06;5014096;28;1575;-77
2022/11/02 12:17:01;;;;;;;;;;;;;;;21.19;28.63;98006.72;5011973;28;1440;-77
2022/11/02 12:19:33;;;;;;;;;;;;;;;21.35;28.29;98003.09;4998427;28;1532;-77
2022/11/02 12:22:01;;;;;;;;;;;;;;;21.20;28.18;98005.47;5015817;28;787;-77
2022/11/02 12:28:19;;;;;;;;;;;;;;;20.88;29.06;97996.94;5013604;28;1544;-77
2022/11/02 12:30:48;;;;;;;;;;;;;;;20.93;29.06;98004.91;4999111;28;1367;-77
2022/11/02 12:33:16;;;;;;;;;;;;;;;21.03;28.57;97998.19;4998812;28;1913;-77
2022/11/02 12:36:00;;;;;;;;;;;;;;;21.02;28.87;97996.63;5015513;28;1149;-76
2022/11/02 12:38:25;;;;;;;;;;;;;;;21.16;28.22;97990.59;4998944;28;902;-77
2022/11/02 12:41:02;;;;;;;;;;;;;;;21.39;28.00;97988.84;5015238;28;715;-77
2022/11/02 12:43:37;;;;;;;;;;;;;;;21.10;28.82;97992.38;4999009;28;1140;-77
2022/11/02 12:46:22;;;;;;;;;;;;;;;20.87;29.21;97995.34;5028146;28;1375;-77
2022/11/02 12:49:01;;;;;;;;;;;;;;;20.94;28.71;97992.38;5035457;28;1287;-77
2022/11/02 12:51:28;;;;;;;;;;;;;;;21.04;28.69;97988.50;5018552;28;1250;-77
2022/11/02 12:53:58;;;;;;;;;;;;;;;20.96;28.77;97989.91;5018520;28;1914;-77
2022/11/02 12:56:29;;;;;;;;;;;;;;;20.86;28.83;97993.78;5012970;28;1527;-77
2022/11/02 12:58:55;;;;;;;;;;;;;;;21.40;27.99;97990.44;4998993;28;1059;-77
2022/11/02 13:01:26;;;;;;;;;;;;;;;21.47;27.85;97987.44;4998930;28;1322;-77
2022/11/02 13:03:51;;;;;;;;;;;;;;;21.16;28.33;97987.78;5015088;28;692;-77
2022/11/02 13:10:00;;;;;;;;;;;;;;;20.98;28.76;97993.06;5034904;28;608;-77
2022/11/02 13:12:25;;;;;;;;;;;;;;;21.12;28.49;97998.38;5034525;28;1108;-77
2022/11/02 13:17:48;;;;;;;;;;;;;;;22.03;27.88;97990.75;4993366;26;1922;-77
2022/11/02 13:20:13;;;;;;;;;;;;;;;21.37;29.83;97988.50;4981388;28;1464;-77
2022/11/02 13:22:39;;;;;;;;;;;;;;;21.24;30.41;97996.88;4997899;28;870;-77
2022/11/02 13:25:14;;;;;;;;;;;;;;;21.12;30.49;97995.56;4996109;28;826;-77
2022/11/02 13:27:59;;;;;;;;;;;;;;;21.21;30.11;97995.75;4994012;28;1490;-77
2022/11/02 13:30:25;;;;;;;;;;;;;;;21.27;29.79;97993.97;4996495;28;1173;-77
2022/11/02 13:33:03;;;;;;;;;;;;;;;21.10;30.40;97998.03;4995125;28;1551;-77
2022/11/02 13:35:33;;;;;;;;;;;;;;;21.12;29.91;97995.56;4996693;28;1979;-77
2022/11/02 13:38:28;;;;;;;;;;;;;;;21.12;29.78;97995.56;4996228;28;1222;-77